createdAt,value
2017-07-30T08:45:55.218Z,1.23
2017-07-30T08:48:25.348Z,1.83
2017-07-30T08:50:55.978Z,1.33
2017-07-30T08:53:26.315Z,1.43
2017-07-30T08:55:57.007Z,1.57
2017-07-30T08:58:27.270Z,1.67
2017-07-30T09:00:58.212Z,1.53
2017-07-30T09:03:28.511Z,1.33
2017-07-30T09:05:59.149Z,1.60
2017-07-30T09:08:29.359Z,1.80
2017-07-30T09:11:00.009Z,2.00
2017-07-30T09:13:31.093Z,1.60
2017-07-30T09:16:11.714Z,2.00
2017-07-30T09:18:48.788Z,2.67
2017-07-30T09:21:19.320Z,1.30
2017-07-30T09:23:49.860Z,1.50
2017-07-30T09:26:20.082Z,1.90
2017-07-30T09:28:51.504Z,2.60
2017-07-30T09:31:22.253Z,2.03
2017-07-30T09:33:52.569Z,1.60
2017-07-30T09:36:31.932Z,1.30
2017-07-30T09:39:11.094Z,2.40
2017-07-30T09:41:43.416Z,2.20
2017-07-30T09:44:23.154Z,1.90
2017-07-30T09:47:00.924Z,2.23
2017-07-30T09:49:42.513Z,2.63
2017-07-30T09:52:22.206Z,2.70
2017-07-30T09:55:01.634Z,2.40
2017-07-30T09:57:37.799Z,3.40
2017-07-30T10:00:08.335Z,2.73
2017-07-30T10:02:48.506Z,3.30
2017-07-30T10:05:29.430Z,3.30
2017-07-30T10:08:06.497Z,3.10
2017-07-30T10:10:45.010Z,3.00
2017-07-30T10:13:21.146Z,3.07
2017-07-30T10:16:00.372Z,3.53
2017-07-30T10:18:41.492Z,2.83
2017-07-30T10:21:19.403Z,4.10
2017-07-30T10:23:56.636Z,3.73
2017-07-30T10:26:33.835Z,3.10
2017-07-30T10:29:11.489Z,3.20
2017-07-30T10:31:49.911Z,3.57
2017-07-30T10:34:29.636Z,3.50
2017-07-30T10:37:07.898Z,2.83
2017-07-30T10:39:47.254Z,4.77
2017-07-30T10:42:24.941Z,4.00
2017-07-30T10:44:59.588Z,3.33
2017-07-30T10:47:32.815Z,3.30
2017-07-30T10:50:06.932Z,3.10
2017-07-30T10:52:45.265Z,3.13
2017-07-30T10:55:17.548Z,3.87
2017-07-30T10:57:47.849Z,3.20
2017-07-30T11:00:25.759Z,2.63
2017-07-30T11:03:04.274Z,3.10
2017-07-30T11:05:39.320Z,2.83
2017-07-30T11:08:16.932Z,3.40
2017-07-30T11:10:55.404Z,2.90
2017-07-30T11:13:32.086Z,3.03
2017-07-30T11:16:11.294Z,2.77
2017-07-30T11:18:50.051Z,2.90
2017-07-30T11:21:31.889Z,3.77
2017-07-30T11:24:10.420Z,3.10
2017-07-30T11:26:42.793Z,3.23
2017-07-30T11:29:20.510Z,2.60
2017-07-30T11:31:58.907Z,3.13
2017-07-30T11:34:38.719Z,2.77
2017-07-30T11:37:17.634Z,3.40
2017-07-30T11:39:56.474Z,3.40
2017-07-30T11:42:34.620Z,2.80
2017-07-30T11:45:13.074Z,3.80
2017-07-30T11:47:52.628Z,3.20
2017-07-30T11:50:31.099Z,3.33
2017-07-30T11:53:10.688Z,3.70
2017-07-30T11:55:49.694Z,2.97
2017-07-30T11:58:28.708Z,2.50
2017-07-30T12:01:05.893Z,3.30
2017-07-30T12:03:44.896Z,3.10
2017-07-30T12:06:22.794Z,3.50
2017-07-30T12:09:04.533Z,3.60
2017-07-30T12:11:43.369Z,3.40
2017-07-30T12:14:25.433Z,3.60
2017-07-30T12:17:03.358Z,2.93
2017-07-30T12:19:40.843Z,3.20
2017-07-30T12:22:18.596Z,3.67
2017-07-30T12:24:56.095Z,3.57
2017-07-30T12:27:32.288Z,3.10
2017-07-30T12:30:11.531Z,3.53
2017-07-30T12:32:50.130Z,3.27
2017-07-30T12:35:28.535Z,3.23
2017-07-30T12:38:06.393Z,3.73
2017-07-30T12:40:45.877Z,3.17
2017-07-30T12:43:24.531Z,3.47
2017-07-30T12:46:05.274Z,3.57
2017-07-30T12:51:24.811Z,3.37
2017-07-30T12:54:02.498Z,3.60
2017-07-30T12:56:41.767Z,3.40
2017-07-30T12:59:19.532Z,3.30
2017-07-30T13:01:57.519Z,3.43
2017-07-30T13:04:34.223Z,3.40
2017-07-30T13:07:14.031Z,3.50
2017-07-30T13:09:51.589Z,3.43
2017-07-30T13:12:31.273Z,3.30
2017-07-30T13:15:07.726Z,2.80
2017-07-30T13:17:47.194Z,3.70
2017-07-30T13:20:25.713Z,3.00
2017-07-30T13:23:05.234Z,2.77
2017-07-30T13:25:43.521Z,3.40
2017-07-30T13:28:22.762Z,3.20
2017-07-30T13:31:02.327Z,3.30
2017-07-30T13:33:41.790Z,3.63
2017-07-30T13:36:19.735Z,2.73
2017-07-30T13:38:59.433Z,2.90
2017-07-30T13:41:40.071Z,2.83
2017-07-30T13:44:19.853Z,2.90
2017-07-30T13:46:56.196Z,3.77
2017-07-30T13:49:35.293Z,3.07
2017-07-30T13:52:14.221Z,3.00
2017-07-30T13:54:52.970Z,3.27
2017-07-30T13:57:30.107Z,2.63
2017-07-30T14:00:09.794Z,3.07
2017-07-30T14:02:48.531Z,3.20
2017-07-30T14:05:27.135Z,2.20
2017-07-30T14:08:06.873Z,2.77
2017-07-30T14:10:47.912Z,2.43
2017-07-30T14:13:27.857Z,2.63
2017-07-30T14:16:08.609Z,2.33
2017-07-30T14:18:46.953Z,2.60
2017-07-30T14:21:26.338Z,2.30
2017-07-30T14:24:04.181Z,3.40
2017-07-30T14:26:43.554Z,2.70
2017-07-30T14:29:17.349Z,5.97
2017-07-30T14:31:50.851Z,3.20
2017-07-30T14:34:30.096Z,3.10
2017-07-30T14:37:10.347Z,2.80
2017-07-30T14:39:49.490Z,3.23
2017-07-30T14:42:29.617Z,2.50
2017-07-30T14:45:10.362Z,2.20
2017-07-30T14:47:49.180Z,2.63
2017-07-30T14:50:27.678Z,3.20
2017-07-30T14:53:05.697Z,2.57
2017-07-30T14:55:43.712Z,2.57
2017-07-30T14:58:23.167Z,2.10
2017-07-30T15:01:01.174Z,3.13
2017-07-30T15:03:40.599Z,2.90
2017-07-30T15:06:19.574Z,2.83
2017-07-30T15:09:00.225Z,3.37
2017-07-30T15:11:38.098Z,15.60
2017-07-30T15:14:16.282Z,16.70
2017-07-30T15:16:53.541Z,29.17
2017-07-30T15:19:33.442Z,26.00
2017-07-30T15:22:12.077Z,27.23
2017-07-30T15:24:42.648Z,24.80
2017-07-30T15:27:17.975Z,24.47
2017-07-30T15:29:56.686Z,24.50
2017-07-30T15:32:32.626Z,23.63
2017-07-30T15:35:11.863Z,24.67
2017-07-30T15:37:42.566Z,21.30
2017-07-30T15:40:21.944Z,26.73
2017-07-30T15:42:52.193Z,20.53
2017-07-30T15:45:22.544Z,20.50
2017-07-30T15:47:53.118Z,20.47
2017-07-30T15:50:23.711Z,18.80
2017-07-30T15:52:59.728Z,18.50
2017-07-30T15:55:39.102Z,17.80
2017-07-30T15:58:14.419Z,18.30
2017-07-30T16:00:53.714Z,20.67
2017-07-30T16:03:33.918Z,17.30
2017-07-30T16:06:13.981Z,16.80
2017-07-30T16:08:52.988Z,17.63
2017-07-30T16:11:32.312Z,15.73
2017-07-30T16:14:11.339Z,16.40
2017-07-30T16:16:51.415Z,14.93
2017-07-30T16:19:34.633Z,16.10
2017-07-30T16:22:14.662Z,15.17
2017-07-30T16:24:51.276Z,14.50
2017-07-30T16:27:30.740Z,13.50
2017-07-30T16:30:08.175Z,12.97
2017-07-30T16:32:47.781Z,13.47
2017-07-30T16:35:19.317Z,12.80
2017-07-30T16:37:53.946Z,12.97
2017-07-30T16:40:30.143Z,14.40
2017-07-30T16:43:03.947Z,13.15
2017-07-30T16:45:40.865Z,12.10
2017-07-30T16:48:19.325Z,11.07
2017-07-30T16:50:57.557Z,12.37
2017-07-30T16:53:35.610Z,11.03
2017-07-30T16:56:12.218Z,11.10
2017-07-30T16:58:51.706Z,11.60
2017-07-30T17:01:31.588Z,12.23
2017-07-30T17:04:13.147Z,10.30
2017-07-30T17:06:52.172Z,9.67
2017-07-30T17:09:30.929Z,9.90
2017-07-30T17:12:08.976Z,9.93
2017-07-30T17:14:41.645Z,9.33
2017-07-30T17:17:20.156Z,9.00
2017-07-30T17:19:58.358Z,10.03
2017-07-30T17:22:31.134Z,9.90
2017-07-30T17:25:06.869Z,8.43
2017-07-30T17:27:37.337Z,8.17
2017-07-30T17:30:08.326Z,8.57
2017-07-30T17:32:38.817Z,7.83
2017-07-30T17:35:19.520Z,9.57
2017-07-30T17:37:59.940Z,7.30
2017-07-30T17:40:40.219Z,8.47
2017-07-30T17:43:19.028Z,7.60
2017-07-30T17:45:57.357Z,7.70
2017-07-30T17:48:32.657Z,7.70
2017-07-30T17:51:05.726Z,8.20
2017-07-30T17:53:45.814Z,7.53
2017-07-30T17:56:17.178Z,6.73
2017-07-30T17:58:53.048Z,7.00
2017-07-30T18:01:32.838Z,7.00
2017-07-30T18:04:11.454Z,5.77
2017-07-30T18:06:50.698Z,6.93
2017-07-30T18:09:28.078Z,6.50
2017-07-30T18:12:09.363Z,5.73
2017-07-30T18:14:40.242Z,5.50
2017-07-30T18:17:11.213Z,5.37
2017-07-30T18:19:41.661Z,8.23
2017-07-30T18:22:12.752Z,6.00
2017-07-30T18:24:43.002Z,7.10
2017-07-30T18:27:13.702Z,6.37
2017-07-30T18:29:44.012Z,5.70
2017-07-30T18:32:24.076Z,5.10
2017-07-30T18:35:02.975Z,5.60
2017-07-30T18:37:39.641Z,4.87
2017-07-30T18:40:10.695Z,5.93
2017-07-30T18:42:48.555Z,4.93
2017-07-30T18:45:26.090Z,6.40
2017-07-30T18:48:05.814Z,4.80
2017-07-30T18:50:43.885Z,4.03
2017-07-30T18:53:21.951Z,4.47
2017-07-30T18:55:58.444Z,4.47
2017-07-30T18:58:36.956Z,4.47
2017-07-30T19:01:12.228Z,4.40
2017-07-30T19:03:52.578Z,4.03
2017-07-30T19:06:32.120Z,3.30
2017-07-30T19:09:11.061Z,3.67
2017-07-30T19:11:49.778Z,3.83
2017-07-30T19:14:28.916Z,4.47
2017-07-30T19:17:07.628Z,3.60
2017-07-30T19:19:46.750Z,4.70
2017-07-30T19:22:25.054Z,3.40
2017-07-30T19:24:55.916Z,3.63
2017-07-30T19:27:26.694Z,4.00
2017-07-30T19:30:08.092Z,3.80
2017-07-30T19:32:45.116Z,4.60
2017-07-30T19:35:24.726Z,3.13
2017-07-30T19:38:03.574Z,3.73
2017-07-30T19:40:43.338Z,3.13
2017-07-30T19:43:20.568Z,5.03
2017-07-30T19:45:58.593Z,3.63
2017-07-30T19:48:34.184Z,3.50
2017-07-30T19:51:14.416Z,2.77
2017-07-30T19:53:53.086Z,3.43
2017-07-30T19:56:37.115Z,3.47
2017-07-30T19:59:13.757Z,3.00
2017-07-30T20:01:44.327Z,3.10
2017-07-30T20:04:14.825Z,4.90
2017-07-30T20:06:45.401Z,3.93
2017-07-30T20:09:15.803Z,3.20
2017-07-30T20:11:55.453Z,3.60
2017-07-30T20:14:32.822Z,3.50
2017-07-30T20:17:12.456Z,3.57
2017-07-30T20:19:53.697Z,4.20
2017-07-30T20:22:33.022Z,2.90
2017-07-30T20:25:10.607Z,4.03
2017-07-30T20:27:49.472Z,3.73
2017-07-30T20:30:28.100Z,3.00
2017-07-30T20:33:09.199Z,3.27
2017-07-30T20:35:47.774Z,3.20
2017-07-30T20:38:27.760Z,3.53
2017-07-30T20:41:06.262Z,2.90
2017-07-30T20:43:45.031Z,2.60
2017-07-30T20:46:22.796Z,2.97
2017-07-30T20:49:01.819Z,3.30
2017-07-30T20:51:38.562Z,3.47
2017-07-30T20:54:16.449Z,3.60
2017-07-30T20:56:53.721Z,2.20
2017-07-30T20:59:31.972Z,3.13
2017-07-30T21:02:10.524Z,4.00
2017-07-30T21:04:49.826Z,2.80
2017-07-30T21:07:26.702Z,3.83
2017-07-30T21:10:07.876Z,3.30
2017-07-30T21:12:46.087Z,3.53
2017-07-30T21:15:24.002Z,2.40
2017-07-30T21:18:01.981Z,3.30
2017-07-30T21:20:41.562Z,2.83
2017-07-30T21:23:20.066Z,2.73
2017-07-30T21:25:58.500Z,3.10
2017-07-30T21:28:35.015Z,2.73
2017-07-30T21:31:17.028Z,3.40
2017-07-30T21:33:56.987Z,2.30
2017-07-30T21:36:36.169Z,3.30
2017-07-30T21:39:15.488Z,2.47
2017-07-30T21:41:54.694Z,2.83
2017-07-30T21:44:32.754Z,2.77
2017-07-30T21:47:10.156Z,3.33
2017-07-30T21:49:44.679Z,2.50
2017-07-30T21:52:22.162Z,2.87
2017-07-30T21:55:01.943Z,4.43
2017-07-30T21:57:42.420Z,3.33
2017-07-30T22:00:12.687Z,3.20
2017-07-30T22:02:50.731Z,2.90
2017-07-30T22:05:27.966Z,2.20
2017-07-30T22:08:04.566Z,2.13
2017-07-30T22:10:42.414Z,2.70
2017-07-30T22:13:18.769Z,2.90
